sensor_id;sensor_type;location;lat;lon;timestamp;P1;durP1;ratioP1;P2;durP2;ratioP2
51987;SDS011;38003;52.012;4.346;2023-01-08T00:01:02;8.53;;;1.90;;
51987;SDS011;38003;52.012;4.346;2023-01-08T00:03:31;6.33;;;2.00;;
51987;SDS011;38003;52.012;4.346;2023-01-08T00:06:00;10.07;;;1.83;;
51987;SDS011;38003;52.012;4.346;2023-01-08T00:08:28;5.43;;;1.40;;
51987;SDS011;38003;52.012;4.346;2023-01-08T00:10:57;4.37;;;1.70;;
51987;SDS011;38003;52.012;4.346;2023-01-08T00:13:25;4.63;;;1.43;;
51987;SDS011;38003;52.012;4.346;2023-01-08T00:15:55;5.77;;;1.50;;
51987;SDS011;38003;52.012;4.346;2023-01-08T00:18:23;6.10;;;2.57;;
51987;SDS011;38003;52.012;4.346;2023-01-08T00:20:52;5.90;;;1.77;;
51987;SDS011;38003;52.012;4.346;2023-01-08T00:23:20;9.43;;;2.57;;
51987;SDS011;38003;52.012;4.346;2023-01-08T00:25:48;6.20;;;2.40;;
51987;SDS011;38003;52.012;4.346;2023-01-08T00:28:16;6.97;;;2.27;;
51987;SDS011;38003;52.012;4.346;2023-01-08T00:30:46;5.53;;;2.50;;
51987;SDS011;38003;52.012;4.346;2023-01-08T00:33:15;4.60;;;2.13;;
51987;SDS011;38003;52.012;4.346;2023-01-08T00:35:43;7.67;;;2.33;;
51987;SDS011;38003;52.012;4.346;2023-01-08T00:38:11;7.33;;;3.00;;
51987;SDS011;38003;52.012;4.346;2023-01-08T00:40:39;10.93;;;3.40;;
51987;SDS011;38003;52.012;4.346;2023-01-08T00:43:07;12.07;;;3.93;;
51987;SDS011;38003;52.012;4.346;2023-01-08T00:45:35;7.47;;;2.83;;
51987;SDS011;38003;52.012;4.346;2023-01-08T00:48:03;5.17;;;2.90;;
51987;SDS011;38003;52.012;4.346;2023-01-08T00:50:33;6.33;;;2.67;;
51987;SDS011;38003;52.012;4.346;2023-01-08T00:53:01;7.17;;;2.70;;
51987;SDS011;38003;52.012;4.346;2023-01-08T00:55:29;4.63;;;2.47;;
51987;SDS011;38003;52.012;4.346;2023-01-08T00:57:57;9.37;;;2.53;;
51987;SDS011;38003;52.012;4.346;2023-01-08T01:00:25;14.90;;;2.97;;
51987;SDS011;38003;52.012;4.346;2023-01-08T01:02:53;6.93;;;2.63;;
51987;SDS011;38003;52.012;4.346;2023-01-08T01:05:21;6.50;;;2.80;;
51987;SDS011;38003;52.012;4.346;2023-01-08T01:07:50;13.47;;;3.80;;
51987;SDS011;38003;52.012;4.346;2023-01-08T01:10:18;9.37;;;3.10;;
51987;SDS011;38003;52.012;4.346;2023-01-08T01:12:46;9.37;;;3.00;;
51987;SDS011;38003;52.012;4.346;2023-01-08T01:15:15;6.60;;;2.80;;
51987;SDS011;38003;52.012;4.346;2023-01-08T01:17:44;11.00;;;2.83;;
51987;SDS011;38003;52.012;4.346;2023-01-08T01:20:13;6.20;;;2.40;;
51987;SDS011;38003;52.012;4.346;2023-01-08T01:22:42;8.20;;;3.20;;
51987;SDS011;38003;52.012;4.346;2023-01-08T01:25:11;5.63;;;2.83;;
51987;SDS011;38003;52.012;4.346;2023-01-08T01:27:39;6.50;;;2.93;;
51987;SDS011;38003;52.012;4.346;2023-01-08T01:30:08;5.50;;;3.60;;
51987;SDS011;38003;52.012;4.346;2023-01-08T01:32:36;7.03;;;3.50;;
51987;SDS011;38003;52.012;4.346;2023-01-08T01:35:05;7.07;;;3.20;;
51987;SDS011;38003;52.012;4.346;2023-01-08T01:37:33;7.67;;;3.50;;
51987;SDS011;38003;52.012;4.346;2023-01-08T01:40:01;8.73;;;3.10;;
51987;SDS011;38003;52.012;4.346;2023-01-08T01:42:30;6.83;;;3.17;;
51987;SDS011;38003;52.012;4.346;2023-01-08T01:45:18;6.07;;;3.30;;
51987;SDS011;38003;52.012;4.346;2023-01-08T01:47:48;6.60;;;3.73;;
51987;SDS011;38003;52.012;4.346;2023-01-08T01:50:22;9.57;;;3.37;;
51987;SDS011;38003;52.012;4.346;2023-01-08T01:52:54;7.93;;;3.77;;
51987;SDS011;38003;52.012;4.346;2023-01-08T01:55:27;7.03;;;3.50;;
51987;SDS011;38003;52.012;4.346;2023-01-08T01:58:00;4.93;;;3.03;;
51987;SDS011;38003;52.012;4.346;2023-01-08T02:00:32;7.63;;;3.57;;
51987;SDS011;38003;52.012;4.346;2023-01-08T02:03:01;5.30;;;2.97;;
51987;SDS011;38003;52.012;4.346;2023-01-08T02:05:32;5.80;;;4.00;;
51987;SDS011;38003;52.012;4.346;2023-01-08T02:08:10;8.03;;;3.40;;
51987;SDS011;38003;52.012;4.346;2023-01-08T02:10:41;7.63;;;3.03;;
51987;SDS011;38003;52.012;4.346;2023-01-08T02:13:22;5.63;;;3.27;;
51987;SDS011;38003;52.012;4.346;2023-01-08T02:15:54;10.10;;;3.37;;
51987;SDS011;38003;52.012;4.346;2023-01-08T02:18:26;11.37;;;4.30;;
51987;SDS011;38003;52.012;4.346;2023-01-08T02:20:59;4.30;;;2.97;;
51987;SDS011;38003;52.012;4.346;2023-01-08T02:23:33;7.77;;;3.67;;
51987;SDS011;38003;52.012;4.346;2023-01-08T02:26:20;5.83;;;3.83;;
51987;SDS011;38003;52.012;4.346;2023-01-08T02:28:52;4.93;;;3.57;;
51987;SDS011;38003;52.012;4.346;2023-01-08T02:31:24;5.20;;;3.60;;
51987;SDS011;38003;52.012;4.346;2023-01-08T02:33:54;6.53;;;2.83;;
51987;SDS011;38003;52.012;4.346;2023-01-08T02:36:24;6.33;;;2.83;;
51987;SDS011;38003;52.012;4.346;2023-01-08T02:39:08;5.70;;;2.47;;
51987;SDS011;38003;52.012;4.346;2023-01-08T02:41:46;4.83;;;2.30;;
51987;SDS011;38003;52.012;4.346;2023-01-08T02:44:20;6.17;;;2.50;;
51987;SDS011;38003;52.012;4.346;2023-01-08T02:46:52;4.80;;;1.97;;
51987;SDS011;38003;52.012;4.346;2023-01-08T02:49:22;7.40;;;3.07;;
51987;SDS011;38003;52.012;4.346;2023-01-08T02:51:54;5.50;;;2.27;;
51987;SDS011;38003;52.012;4.346;2023-01-08T02:54:25;6.20;;;2.80;;
51987;SDS011;38003;52.012;4.346;2023-01-08T02:56:58;5.57;;;1.33;;
51987;SDS011;38003;52.012;4.346;2023-01-08T02:59:29;6.20;;;1.40;;
51987;SDS011;38003;52.012;4.346;2023-01-08T03:01:58;5.90;;;1.70;;
51987;SDS011;38003;52.012;4.346;2023-01-08T03:04:29;4.47;;;1.30;;
51987;SDS011;38003;52.012;4.346;2023-01-08T03:07:00;6.77;;;1.60;;
51987;SDS011;38003;52.012;4.346;2023-01-08T03:09:29;5.20;;;1.70;;
51987;SDS011;38003;52.012;4.346;2023-01-08T03:11:59;5.83;;;1.60;;
51987;SDS011;38003;52.012;4.346;2023-01-08T03:14:34;9.27;;;1.80;;
51987;SDS011;38003;52.012;4.346;2023-01-08T03:17:07;5.90;;;1.67;;
51987;SDS011;38003;52.012;4.346;2023-01-08T03:19:41;5.80;;;1.23;;
51987;SDS011;38003;52.012;4.346;2023-01-08T03:22:14;7.47;;;1.60;;
51987;SDS011;38003;52.012;4.346;2023-01-08T03:24:44;6.27;;;1.50;;
51987;SDS011;38003;52.012;4.346;2023-01-08T03:27:19;9.57;;;1.87;;
51987;SDS011;38003;52.012;4.346;2023-01-08T03:29:50;11.87;;;1.93;;
51987;SDS011;38003;52.012;4.346;2023-01-08T03:32:20;4.67;;;1.60;;
51987;SDS011;38003;52.012;4.346;2023-01-08T03:34:50;4.40;;;1.20;;
51987;SDS011;38003;52.012;4.346;2023-01-08T03:37:27;7.83;;;1.70;;
51987;SDS011;38003;52.012;4.346;2023-01-08T03:40:10;9.03;;;1.77;;
51987;SDS011;38003;52.012;4.346;2023-01-08T03:42:44;8.90;;;1.60;;
51987;SDS011;38003;52.012;4.346;2023-01-08T03:45:12;12.77;;;2.83;;
51987;SDS011;38003;52.012;4.346;2023-01-08T03:47:40;7.27;;;1.30;;
51987;SDS011;38003;52.012;4.346;2023-01-08T03:50:10;9.00;;;1.57;;
51987;SDS011;38003;52.012;4.346;2023-01-08T03:52:42;12.30;;;1.60;;
51987;SDS011;38003;52.012;4.346;2023-01-08T03:55:10;7.97;;;1.77;;
51987;SDS011;38003;52.012;4.346;2023-01-08T03:57:38;11.50;;;2.33;;
51987;SDS011;38003;52.012;4.346;2023-01-08T04:00:08;11.70;;;2.20;;
51987;SDS011;38003;52.012;4.346;2023-01-08T04:02:36;7.90;;;2.07;;
51987;SDS011;38003;52.012;4.346;2023-01-08T04:05:07;10.37;;;2.30;;
51987;SDS011;38003;52.012;4.346;2023-01-08T04:07:36;7.43;;;2.17;;
51987;SDS011;38003;52.012;4.346;2023-01-08T04:10:04;5.97;;;1.40;;
51987;SDS011;38003;52.012;4.346;2023-01-08T04:12:32;8.50;;;2.00;;
51987;SDS011;38003;52.012;4.346;2023-01-08T04:15:00;9.23;;;1.73;;
51987;SDS011;38003;52.012;4.346;2023-01-08T04:17:29;5.50;;;1.37;;
51987;SDS011;38003;52.012;4.346;2023-01-08T04:19:57;5.30;;;1.50;;
51987;SDS011;38003;52.012;4.346;2023-01-08T04:22:25;10.37;;;3.47;;
51987;SDS011;38003;52.012;4.346;2023-01-08T04:24:53;8.30;;;1.80;;
51987;SDS011;38003;52.012;4.346;2023-01-08T04:27:20;7.17;;;1.50;;
51987;SDS011;38003;52.012;4.346;2023-01-08T04:29:48;8.53;;;1.63;;
51987;SDS011;38003;52.012;4.346;2023-01-08T04:32:17;7.80;;;2.10;;
51987;SDS011;38003;52.012;4.346;2023-01-08T04:34:47;5.37;;;1.47;;
51987;SDS011;38003;52.012;4.346;2023-01-08T04:37:15;6.00;;;1.53;;
51987;SDS011;38003;52.012;4.346;2023-01-08T04:39:42;6.10;;;1.70;;
51987;SDS011;38003;52.012;4.346;2023-01-08T04:42:10;6.63;;;1.80;;
51987;SDS011;38003;52.012;4.346;2023-01-08T04:44:38;3.47;;;1.63;;
51987;SDS011;38003;52.012;4.346;2023-01-08T04:47:06;5.67;;;2.00;;
51987;SDS011;38003;52.012;4.346;2023-01-08T04:49:34;4.97;;;2.00;;
51987;SDS011;38003;52.012;4.346;2023-01-08T04:52:03;6.13;;;1.90;;
51987;SDS011;38003;52.012;4.346;2023-01-08T04:54:31;5.40;;;1.83;;
51987;SDS011;38003;52.012;4.346;2023-01-08T04:56:59;7.53;;;1.83;;
51987;SDS011;38003;52.012;4.346;2023-01-08T04:59:27;4.17;;;2.13;;
51987;SDS011;38003;52.012;4.346;2023-01-08T05:01:55;7.37;;;1.90;;
51987;SDS011;38003;52.012;4.346;2023-01-08T05:04:23;5.17;;;2.17;;
51987;SDS011;38003;52.012;4.346;2023-01-08T05:06:51;9.00;;;2.20;;
51987;SDS011;38003;52.012;4.346;2023-01-08T05:09:20;7.77;;;2.33;;
51987;SDS011;38003;52.012;4.346;2023-01-08T05:11:48;11.03;;;2.10;;
51987;SDS011;38003;52.012;4.346;2023-01-08T05:14:16;7.63;;;2.60;;
51987;SDS011;38003;52.012;4.346;2023-01-08T05:16:43;6.53;;;2.33;;
51987;SDS011;38003;52.012;4.346;2023-01-08T05:19:12;6.33;;;2.30;;
51987;SDS011;38003;52.012;4.346;2023-01-08T05:21:40;8.30;;;2.17;;
51987;SDS011;38003;52.012;4.346;2023-01-08T05:24:08;8.27;;;1.80;;
51987;SDS011;38003;52.012;4.346;2023-01-08T05:26:37;5.23;;;1.60;;
51987;SDS011;38003;52.012;4.346;2023-01-08T05:29:05;7.87;;;2.00;;
51987;SDS011;38003;52.012;4.346;2023-01-08T05:31:34;6.73;;;2.10;;
51987;SDS011;38003;52.012;4.346;2023-01-08T05:34:01;7.07;;;1.83;;
51987;SDS011;38003;52.012;4.346;2023-01-08T05:36:29;7.97;;;2.07;;
51987;SDS011;38003;52.012;4.346;2023-01-08T05:38:57;8.27;;;1.90;;
51987;SDS011;38003;52.012;4.346;2023-01-08T05:41:25;4.87;;;1.90;;
51987;SDS011;38003;52.012;4.346;2023-01-08T05:43:54;6.23;;;1.57;;
51987;SDS011;38003;52.012;4.346;2023-01-08T05:46:22;7.57;;;2.17;;
51987;SDS011;38003;52.012;4.346;2023-01-08T05:48:50;9.60;;;2.07;;
51987;SDS011;38003;52.012;4.346;2023-01-08T05:51:18;7.10;;;1.73;;
51987;SDS011;38003;52.012;4.346;2023-01-08T05:53:46;6.03;;;1.80;;
51987;SDS011;38003;52.012;4.346;2023-01-08T05:56:13;7.67;;;2.03;;
51987;SDS011;38003;52.012;4.346;2023-01-08T05:58:41;12.53;;;2.33;;
51987;SDS011;38003;52.012;4.346;2023-01-08T06:01:11;9.50;;;2.10;;
51987;SDS011;38003;52.012;4.346;2023-01-08T06:03:41;9.17;;;2.00;;
51987;SDS011;38003;52.012;4.346;2023-01-08T06:06:09;8.87;;;1.97;;
51987;SDS011;38003;52.012;4.346;2023-01-08T06:08:38;7.40;;;2.10;;
51987;SDS011;38003;52.012;4.346;2023-01-08T06:11:07;10.10;;;2.27;;
51987;SDS011;38003;52.012;4.346;2023-01-08T06:13:39;10.53;;;3.23;;
51987;SDS011;38003;52.012;4.346;2023-01-08T06:16:08;9.37;;;2.57;;
51987;SDS011;38003;52.012;4.346;2023-01-08T06:18:38;12.50;;;2.50;;
51987;SDS011;38003;52.012;4.346;2023-01-08T06:21:05;6.77;;;2.13;;
51987;SDS011;38003;52.012;4.346;2023-01-08T06:23:33;9.83;;;2.30;;
51987;SDS011;38003;52.012;4.346;2023-01-08T06:26:01;8.03;;;2.33;;
51987;SDS011;38003;52.012;4.346;2023-01-08T06:28:30;12.17;;;2.47;;
51987;SDS011;38003;52.012;4.346;2023-01-08T06:30:59;11.60;;;2.30;;
51987;SDS011;38003;52.012;4.346;2023-01-08T06:33:28;7.93;;;2.40;;
51987;SDS011;38003;52.012;4.346;2023-01-08T06:35:59;11.30;;;2.80;;
51987;SDS011;38003;52.012;4.346;2023-01-08T06:38:29;10.27;;;2.80;;
51987;SDS011;38003;52.012;4.346;2023-01-08T06:41:01;9.50;;;2.30;;
51987;SDS011;38003;52.012;4.346;2023-01-08T06:43:30;11.50;;;3.00;;
51987;SDS011;38003;52.012;4.346;2023-01-08T06:46:01;12.63;;;2.70;;
51987;SDS011;38003;52.012;4.346;2023-01-08T06:48:29;12.40;;;2.40;;
51987;SDS011;38003;52.012;4.346;2023-01-08T06:50:59;8.23;;;2.27;;
51987;SDS011;38003;52.012;4.346;2023-01-08T06:53:28;9.43;;;2.30;;
51987;SDS011;38003;52.012;4.346;2023-01-08T06:55:56;10.27;;;2.57;;
51987;SDS011;38003;52.012;4.346;2023-01-08T06:58:24;8.93;;;2.33;;
51987;SDS011;38003;52.012;4.346;2023-01-08T07:00:53;8.73;;;2.90;;
51987;SDS011;38003;52.012;4.346;2023-01-08T07:03:24;11.77;;;2.20;;
51987;SDS011;38003;52.012;4.346;2023-01-08T07:05:52;8.20;;;2.60;;
51987;SDS011;38003;52.012;4.346;2023-01-08T07:08:21;10.67;;;2.10;;
51987;SDS011;38003;52.012;4.346;2023-01-08T07:10:49;8.00;;;2.20;;
51987;SDS011;38003;52.012;4.346;2023-01-08T07:13:17;10.53;;;2.13;;
51987;SDS011;38003;52.012;4.346;2023-01-08T07:15:46;10.57;;;1.90;;
51987;SDS011;38003;52.012;4.346;2023-01-08T07:18:14;8.40;;;2.17;;
51987;SDS011;38003;52.012;4.346;2023-01-08T07:20:41;12.23;;;2.17;;
51987;SDS011;38003;52.012;4.346;2023-01-08T07:23:10;9.37;;;2.13;;
51987;SDS011;38003;52.012;4.346;2023-01-08T07:25:39;9.47;;;2.10;;
51987;SDS011;38003;52.012;4.346;2023-01-08T07:28:09;10.43;;;2.27;;
51987;SDS011;38003;52.012;4.346;2023-01-08T07:30:38;6.43;;;1.60;;
51987;SDS011;38003;52.012;4.346;2023-01-08T07:33:06;5.97;;;1.87;;
51987;SDS011;38003;52.012;4.346;2023-01-08T07:35:33;8.43;;;1.93;;
51987;SDS011;38003;52.012;4.346;2023-01-08T07:38:03;8.90;;;2.30;;
51987;SDS011;38003;52.012;4.346;2023-01-08T07:40:31;6.90;;;2.13;;
51987;SDS011;38003;52.012;4.346;2023-01-08T07:43:01;11.40;;;2.30;;
51987;SDS011;38003;52.012;4.346;2023-01-08T07:45:30;11.63;;;2.00;;
51987;SDS011;38003;52.012;4.346;2023-01-08T07:47:58;11.20;;;2.20;;
51987;SDS011;38003;52.012;4.346;2023-01-08T07:50:26;7.53;;;1.90;;
51987;SDS011;38003;52.012;4.346;2023-01-08T07:52:55;10.63;;;2.27;;
51987;SDS011;38003;52.012;4.346;2023-01-08T07:55:24;11.67;;;2.60;;
51987;SDS011;38003;52.012;4.346;2023-01-08T07:57:52;9.30;;;2.90;;
51987;SDS011;38003;52.012;4.346;2023-01-08T08:00:22;10.10;;;1.83;;
51987;SDS011;38003;52.012;4.346;2023-01-08T08:02:49;10.40;;;2.37;;
51987;SDS011;38003;52.012;4.346;2023-01-08T08:05:17;8.97;;;2.00;;
51987;SDS011;38003;52.012;4.346;2023-01-08T08:07:45;11.50;;;2.13;;
51987;SDS011;38003;52.012;4.346;2023-01-08T08:10:13;13.67;;;2.20;;
51987;SDS011;38003;52.012;4.346;2023-01-08T08:12:43;11.43;;;2.37;;
51987;SDS011;38003;52.012;4.346;2023-01-08T08:15:11;11.57;;;2.20;;
51987;SDS011;38003;52.012;4.346;2023-01-08T08:17:40;7.40;;;2.47;;
51987;SDS011;38003;52.012;4.346;2023-01-08T08:20:11;10.53;;;2.40;;
51987;SDS011;38003;52.012;4.346;2023-01-08T08:22:39;9.33;;;2.00;;
51987;SDS011;38003;52.012;4.346;2023-01-08T08:25:07;10.13;;;2.03;;
51987;SDS011;38003;52.012;4.346;2023-01-08T08:27:35;9.80;;;1.83;;
51987;SDS011;38003;52.012;4.346;2023-01-08T08:30:03;9.27;;;1.80;;
51987;SDS011;38003;52.012;4.346;2023-01-08T08:32:32;8.03;;;2.03;;
51987;SDS011;38003;52.012;4.346;2023-01-08T08:35:02;7.17;;;1.93;;
51987;SDS011;38003;52.012;4.346;2023-01-08T08:37:30;9.60;;;2.40;;
51987;SDS011;38003;52.012;4.346;2023-01-08T08:39:58;7.50;;;2.20;;
51987;SDS011;38003;52.012;4.346;2023-01-08T08:42:26;7.80;;;1.97;;
51987;SDS011;38003;52.012;4.346;2023-01-08T08:44:53;9.63;;;1.87;;
51987;SDS011;38003;52.012;4.346;2023-01-08T08:47:21;7.20;;;2.43;;
51987;SDS011;38003;52.012;4.346;2023-01-08T08:49:49;9.17;;;1.97;;
51987;SDS011;38003;52.012;4.346;2023-01-08T08:52:18;7.23;;;2.03;;
51987;SDS011;38003;52.012;4.346;2023-01-08T08:54:46;9.83;;;2.30;;
51987;SDS011;38003;52.012;4.346;2023-01-08T08:57:14;7.43;;;1.90;;
51987;SDS011;38003;52.012;4.346;2023-01-08T08:59:42;13.87;;;2.93;;
51987;SDS011;38003;52.012;4.346;2023-01-08T09:02:10;11.87;;;2.53;;
51987;SDS011;38003;52.012;4.346;2023-01-08T09:04:38;7.27;;;2.10;;
51987;SDS011;38003;52.012;4.346;2023-01-08T09:07:06;8.33;;;2.70;;
51987;SDS011;38003;52.012;4.346;2023-01-08T09:09:35;9.03;;;2.50;;
51987;SDS011;38003;52.012;4.346;2023-01-08T09:12:03;6.93;;;2.50;;
51987;SDS011;38003;52.012;4.346;2023-01-08T09:14:32;11.10;;;2.53;;
51987;SDS011;38003;52.012;4.346;2023-01-08T09:17:00;11.23;;;3.10;;
51987;SDS011;38003;52.012;4.346;2023-01-08T09:19:28;8.87;;;2.30;;
51987;SDS011;38003;52.012;4.346;2023-01-08T09:21:56;8.13;;;2.40;;
51987;SDS011;38003;52.012;4.346;2023-01-08T09:24:23;8.53;;;4.93;;
51987;SDS011;38003;52.012;4.346;2023-01-08T09:26:53;11.07;;;3.47;;
51987;SDS011;38003;52.012;4.346;2023-01-08T09:29:21;12.17;;;2.83;;
51987;SDS011;38003;52.012;4.346;2023-01-08T09:31:49;8.70;;;2.60;;
51987;SDS011;38003;52.012;4.346;2023-01-08T09:34:17;10.70;;;2.90;;
51987;SDS011;38003;52.012;4.346;2023-01-08T09:36:45;9.50;;;3.20;;
51987;SDS011;38003;52.012;4.346;2023-01-08T09:39:12;9.73;;;2.60;;
51987;SDS011;38003;52.012;4.346;2023-01-08T09:41:41;11.13;;;2.90;;
51987;SDS011;38003;52.012;4.346;2023-01-08T09:44:14;9.37;;;2.73;;
51987;SDS011;38003;52.012;4.346;2023-01-08T09:46:44;9.27;;;3.07;;
51987;SDS011;38003;52.012;4.346;2023-01-08T09:49:14;7.87;;;2.57;;
51987;SDS011;38003;52.012;4.346;2023-01-08T09:51:45;8.00;;;2.53;;
51987;SDS011;38003;52.012;4.346;2023-01-08T09:54:14;10.53;;;2.93;;
51987;SDS011;38003;52.012;4.346;2023-01-08T09:56:43;9.50;;;3.90;;
51987;SDS011;38003;52.012;4.346;2023-01-08T09:59:11;8.80;;;3.23;;
51987;SDS011;38003;52.012;4.346;2023-01-08T10:01:43;6.50;;;2.70;;
51987;SDS011;38003;52.012;4.346;2023-01-08T10:04:13;9.30;;;2.93;;
51987;SDS011;38003;52.012;4.346;2023-01-08T10:06:45;8.60;;;2.50;;
51987;SDS011;38003;52.012;4.346;2023-01-08T10:09:16;8.73;;;2.87;;
51987;SDS011;38003;52.012;4.346;2023-01-08T10:11:50;6.50;;;2.63;;
51987;SDS011;38003;52.012;4.346;2023-01-08T10:14:21;7.77;;;3.30;;
51987;SDS011;38003;52.012;4.346;2023-01-08T10:16:52;9.03;;;2.93;;
51987;SDS011;38003;52.012;4.346;2023-01-08T10:19:22;8.73;;;2.23;;
51987;SDS011;38003;52.012;4.346;2023-01-08T10:21:50;11.50;;;2.10;;
51987;SDS011;38003;52.012;4.346;2023-01-08T10:24:29;8.20;;;2.10;;
51987;SDS011;38003;52.012;4.346;2023-01-08T10:27:04;7.07;;;2.53;;
51987;SDS011;38003;52.012;4.346;2023-01-08T10:29:34;6.37;;;2.23;;
51987;SDS011;38003;52.012;4.346;2023-01-08T10:32:06;7.23;;;2.03;;
51987;SDS011;38003;52.012;4.346;2023-01-08T10:34:41;6.90;;;2.00;;
51987;SDS011;38003;52.012;4.346;2023-01-08T10:37:16;6.20;;;1.90;;
51987;SDS011;38003;52.012;4.346;2023-01-08T10:39:50;10.47;;;2.93;;
51987;SDS011;38003;52.012;4.346;2023-01-08T10:42:20;5.80;;;2.20;;
51987;SDS011;38003;52.012;4.346;2023-01-08T10:44:53;6.77;;;2.30;;
51987;SDS011;38003;52.012;4.346;2023-01-08T10:47:24;6.43;;;2.43;;
51987;SDS011;38003;52.012;4.346;2023-01-08T10:49:54;8.47;;;1.97;;
51987;SDS011;38003;52.012;4.346;2023-01-08T10:52:25;8.03;;;1.83;;
51987;SDS011;38003;52.012;4.346;2023-01-08T10:54:56;8.37;;;1.90;;
51987;SDS011;38003;52.012;4.346;2023-01-08T10:57:38;6.17;;;1.73;;
51987;SDS011;38003;52.012;4.346;2023-01-08T11:00:22;5.53;;;1.60;;
51987;SDS011;38003;52.012;4.346;2023-01-08T11:02:51;5.53;;;1.63;;
51987;SDS011;38003;52.012;4.346;2023-01-08T11:05:19;7.10;;;2.07;;
51987;SDS011;38003;52.012;4.346;2023-01-08T11:07:56;6.10;;;1.70;;
51987;SDS011;38003;52.012;4.346;2023-01-08T11:10:26;4.60;;;1.90;;
51987;SDS011;38003;52.012;4.346;2023-01-08T11:12:56;9.03;;;1.73;;
51987;SDS011;38003;52.012;4.346;2023-01-08T11:15:28;5.63;;;1.67;;
51987;SDS011;38003;52.012;4.346;2023-01-08T11:18:05;6.10;;;1.70;;
51987;SDS011;38003;52.012;4.346;2023-01-08T11:20:37;8.30;;;2.10;;
51987;SDS011;38003;52.012;4.346;2023-01-08T11:23:12;7.83;;;2.10;;
51987;SDS011;38003;52.012;4.346;2023-01-08T11:25:47;4.53;;;1.70;;
51987;SDS011;38003;52.012;4.346;2023-01-08T11:28:23;4.30;;;1.77;;
51987;SDS011;38003;52.012;4.346;2023-01-08T11:31:01;6.30;;;1.97;;
51987;SDS011;38003;52.012;4.346;2023-01-08T11:33:38;5.63;;;1.70;;
51987;SDS011;38003;52.012;4.346;2023-01-08T11:36:09;5.23;;;1.60;;
51987;SDS011;38003;52.012;4.346;2023-01-08T11:38:42;10.67;;;2.13;;
51987;SDS011;38003;52.012;4.346;2023-01-08T11:41:13;6.20;;;1.83;;
51987;SDS011;38003;52.012;4.346;2023-01-08T11:43:55;4.50;;;1.50;;
51987;SDS011;38003;52.012;4.346;2023-01-08T11:46:36;8.00;;;1.90;;
51987;SDS011;38003;52.012;4.346;2023-01-08T11:49:15;6.97;;;1.83;;
51987;SDS011;38003;52.012;4.346;2023-01-08T11:51:57;7.03;;;2.10;;
51987;SDS011;38003;52.012;4.346;2023-01-08T11:54:38;5.13;;;1.70;;
51987;SDS011;38003;52.012;4.346;2023-01-08T11:57:22;6.97;;;1.70;;
51987;SDS011;38003;52.012;4.346;2023-01-08T12:00:02;6.37;;;2.00;;
51987;SDS011;38003;52.012;4.346;2023-01-08T12:02:49;4.97;;;1.53;;
51987;SDS011;38003;52.012;4.346;2023-01-08T12:05:26;5.17;;;1.93;;
51987;SDS011;38003;52.012;4.346;2023-01-08T12:07:59;3.60;;;1.67;;
51987;SDS011;38003;52.012;4.346;2023-01-08T12:10:33;4.93;;;1.30;;
51987;SDS011;38003;52.012;4.346;2023-01-08T12:13:13;4.93;;;1.57;;
51987;SDS011;38003;52.012;4.346;2023-01-08T12:15:55;5.10;;;1.40;;
51987;SDS011;38003;52.012;4.346;2023-01-08T12:18:37;5.00;;;1.33;;
51987;SDS011;38003;52.012;4.346;2023-01-08T12:21:30;6.43;;;1.60;;
51987;SDS011;38003;52.012;4.346;2023-01-08T12:24:04;6.87;;;1.97;;
51987;SDS011;38003;52.012;4.346;2023-01-08T12:26:43;5.00;;;1.50;;
51987;SDS011;38003;52.012;4.346;2023-01-08T12:29:21;3.27;;;1.10;;
51987;SDS011;38003;52.012;4.346;2023-01-08T12:32:16;5.93;;;1.30;;
51987;SDS011;38003;52.012;4.346;2023-01-08T12:34:53;5.53;;;1.80;;
51987;SDS011;38003;52.012;4.346;2023-01-08T12:37:25;5.50;;;1.20;;
51987;SDS011;38003;52.012;4.346;2023-01-08T12:39:59;4.60;;;1.47;;
51987;SDS011;38003;52.012;4.346;2023-01-08T12:42:32;4.87;;;1.20;;
51987;SDS011;38003;52.012;4.346;2023-01-08T12:45:15;5.13;;;1.40;;
51987;SDS011;38003;52.012;4.346;2023-01-08T12:47:47;6.37;;;1.87;;
51987;SDS011;38003;52.012;4.346;2023-01-08T12:50:21;6.00;;;1.60;;
51987;SDS011;38003;52.012;4.346;2023-01-08T12:53:00;4.03;;;1.50;;
51987;SDS011;38003;52.012;4.346;2023-01-08T12:55:32;7.77;;;1.63;;
51987;SDS011;38003;52.012;4.346;2023-01-08T12:58:12;6.13;;;1.30;;
51987;SDS011;38003;52.012;4.346;2023-01-08T13:00:49;8.73;;;2.27;;
51987;SDS011;38003;52.012;4.346;2023-01-08T13:03:23;6.67;;;1.90;;
51987;SDS011;38003;52.012;4.346;2023-01-08T13:06:05;5.13;;;1.60;;
51987;SDS011;38003;52.012;4.346;2023-01-08T13:08:35;4.43;;;1.40;;
51987;SDS011;38003;52.012;4.346;2023-01-08T13:11:05;5.23;;;1.63;;
51987;SDS011;38003;52.012;4.346;2023-01-08T13:13:34;5.40;;;1.43;;
51987;SDS011;38003;52.012;4.346;2023-01-08T13:16:05;6.70;;;1.60;;
51987;SDS011;38003;52.012;4.346;2023-01-08T13:18:35;5.67;;;1.43;;
51987;SDS011;38003;52.012;4.346;2023-01-08T13:21:06;5.50;;;1.40;;
51987;SDS011;38003;52.012;4.346;2023-01-08T13:23:37;4.10;;;1.37;;
51987;SDS011;38003;52.012;4.346;2023-01-08T13:26:05;6.53;;;1.50;;
51987;SDS011;38003;52.012;4.346;2023-01-08T13:28:40;6.67;;;1.47;;
51987;SDS011;38003;52.012;4.346;2023-01-08T13:31:23;6.60;;;1.50;;
51987;SDS011;38003;52.012;4.346;2023-01-08T13:33:53;4.20;;;1.43;;
51987;SDS011;38003;52.012;4.346;2023-01-08T13:36:24;8.20;;;1.60;;
51987;SDS011;38003;52.012;4.346;2023-01-08T13:38:59;6.17;;;1.47;;
51987;SDS011;38003;52.012;4.346;2023-01-08T13:41:30;4.80;;;1.60;;
51987;SDS011;38003;52.012;4.346;2023-01-08T13:43:59;4.73;;;1.30;;
51987;SDS011;38003;52.012;4.346;2023-01-08T13:46:30;7.67;;;1.50;;
51987;SDS011;38003;52.012;4.346;2023-01-08T13:49:01;4.97;;;1.50;;
51987;SDS011;38003;52.012;4.346;2023-01-08T13:51:42;5.93;;;1.50;;
51987;SDS011;38003;52.012;4.346;2023-01-08T13:57:02;5.27;;;1.80;;
51987;SDS011;38003;52.012;4.346;2023-01-08T13:59:35;8.30;;;1.50;;
51987;SDS011;38003;52.012;4.346;2023-01-08T14:02:19;5.70;;;1.37;;
51987;SDS011;38003;52.012;4.346;2023-01-08T14:04:50;4.03;;;1.63;;
51987;SDS011;38003;52.012;4.346;2023-01-08T14:07:20;4.43;;;1.80;;
51987;SDS011;38003;52.012;4.346;2023-01-08T14:09:49;4.67;;;1.77;;
51987;SDS011;38003;52.012;4.346;2023-01-08T14:12:17;6.90;;;1.80;;
51987;SDS011;38003;52.012;4.346;2023-01-08T14:14:47;4.00;;;2.17;;
51987;SDS011;38003;52.012;4.346;2023-01-08T14:17:18;7.97;;;2.20;;
51987;SDS011;38003;52.012;4.346;2023-01-08T14:19:47;5.90;;;2.37;;
51987;SDS011;38003;52.012;4.346;2023-01-08T14:22:17;9.13;;;2.30;;
51987;SDS011;38003;52.012;4.346;2023-01-08T14:24:52;4.47;;;2.27;;
51987;SDS011;38003;52.012;4.346;2023-01-08T14:27:23;4.80;;;2.20;;
51987;SDS011;38003;52.012;4.346;2023-01-08T14:29:52;6.27;;;2.00;;
51987;SDS011;38003;52.012;4.346;2023-01-08T14:32:21;7.23;;;2.23;;
51987;SDS011;38003;52.012;4.346;2023-01-08T14:34:51;5.00;;;1.83;;
51987;SDS011;38003;52.012;4.346;2023-01-08T14:37:22;8.30;;;1.93;;
51987;SDS011;38003;52.012;4.346;2023-01-08T14:39:50;8.77;;;2.20;;
51987;SDS011;38003;52.012;4.346;2023-01-08T14:42:20;6.13;;;1.90;;
51987;SDS011;38003;52.012;4.346;2023-01-08T14:45:13;4.27;;;1.90;;
51987;SDS011;38003;52.012;4.346;2023-01-08T14:47:43;5.80;;;2.00;;
51987;SDS011;38003;52.012;4.346;2023-01-08T14:50:18;8.37;;;1.80;;
51987;SDS011;38003;52.012;4.346;2023-01-08T14:52:51;6.03;;;1.97;;
51987;SDS011;38003;52.012;4.346;2023-01-08T14:55:21;6.70;;;1.97;;
51987;SDS011;38003;52.012;4.346;2023-01-08T14:57:50;8.10;;;1.80;;
51987;SDS011;38003;52.012;4.346;2023-01-08T15:00:20;6.00;;;2.37;;
51987;SDS011;38003;52.012;4.346;2023-01-08T15:02:51;8.40;;;1.97;;
51987;SDS011;38003;52.012;4.346;2023-01-08T15:05:19;6.07;;;1.97;;
51987;SDS011;38003;52.012;4.346;2023-01-08T15:07:55;5.87;;;2.70;;
51987;SDS011;38003;52.012;4.346;2023-01-08T15:10:30;7.00;;;1.60;;